Latest Coastal Weather Observations for Wynyard

IDT60701

Issued at 8:52 am EST Friday 19 August 2022 (issued every 10 minutes, with the page automatically refreshed every 10 minutes)

About coastal observations | Map of coastal stations | Coastal observations for TAS | Marine services | Other Formats
Station Details ID: 091107 Name: WYNYARD AIRPORT Lat: -41.00 Lon: 145.73 Height: 12.0 m
Data from the previous 72 hours. | See also: Recent months at Wynyard
Date/Time
EST
Wind Sea
Height
m
Swell Vis
km
Cloud Weather Temp
°C
Press
MSL
hPa
Rain since
9am
mm
Dir  Spd
kts
Gust
kts
Height
m
Period
s
Dir
19/08:30am W 5 5 - - - - 10 - - 6.6 1009.6 3.2
19/08:00am WNW 3 4 - - - - 10 - - 5.3 1009.3 3.2
19/07:30am SW 6 6 - - - - 10 - - 3.7 1008.9 3.2
19/07:00am NNW 2 5 - - - - 10 Partly cloudy - 3.9 1008.4 3.2
19/06:30am NW 4 4 - - - - 10 Partly cloudy - 4.3 1008.3 3.2
19/06:00am WNW 3 4 - - - - 10 Mostly clear - 4.3 1007.9 3.2
19/05:30am WSW 1 3 - - - - 10 Partly cloudy - 4.8 1007.6 3.2
19/05:00am W 6 7 - - - - 10 Partly cloudy - 4.8 1007.3 3.2
19/04:30am WSW 4 5 - - - - 10 - - 3.4 1007.1 3.0
19/04:00am W 5 5 - - - - 10 - - 4.1 1006.7 3.0
19/03:30am SSW 5 6 - - - - 10 Partly cloudy - 5.4 1006.4 3.0
19/03:00am WSW 5 7 - - - - 10 Partly cloudy Rain 6.1 1006.3 3.0
19/02:30am WNW 8 10 - - - - 10 - - 7.2 1006.2 2.8
19/02:00am NW 7 8 - - - - 10 - - 7.1 1005.9 2.8
19/01:30am NW 7 10 - - - - 10 Partly cloudy - 7.8 1005.9 2.8
19/01:00am WNW 9 11 - - - - 10 Partly cloudy - 7.9 1005.6 2.8
19/12:30am NW 5 5 - - - - 10 Partly cloudy - 6.9 1005.3 2.8
19/12:00am W 5 6 - - - - 10 Cloudy - 7.0 1005.0 2.8
 
Date/Time
EST
Wind Sea
Height
m
Swell Vis
km
Cloud Weather Temp
°C
Press
MSL
hPa
Rain since
9am
mm
Dir  Spd
kts
Gust
kts
Height
m
Period
s
Dir
18/11:30pm WSW 5 5 - - - - 10 Partly cloudy - 6.6 1005.1 2.8
18/11:00pm WNW 7 7 - - - - 10 - - 7.9 1004.8 2.8
18/10:30pm W 6 8 - - - - 10 - - 8.3 1004.9 2.8
18/10:00pm WNW 6 8 - - - - 10 - - 8.5 1004.7 2.8
18/09:30pm WSW 4 5 - - - - 10 - - 8.2 1004.2 2.8
18/09:00pm W 4 5 - - - - 10 Cloudy - 8.5 1004.0 2.8
18/08:30pm W 5 6 - - - - 10 Partly cloudy - 8.4 1004.0 2.8
18/08:00pm WNW 6 7 - - - - 10 - - 8.8 1003.9 2.8
18/07:30pm W 7 10 - - - - 10 Partly cloudy - 9.3 1003.6 2.8
18/07:00pm W 6 8 - - - - 10 Partly cloudy - 9.6 1003.4 2.8
18/06:30pm NW 5 7 - - - - 10 Partly cloudy - 10.0 1002.8 2.8
18/06:00pm WNW 9 13 - - - - 10 Cloudy - 10.2 1002.3 2.8
18/05:30pm W 13 18 - - - - 10 Partly cloudy - 10.8 1001.6 2.8
18/05:00pm W 12 16 - - - - 10 Partly cloudy - 11.2 1000.9 2.8
18/04:30pm W 12 16 - - - - 10 - - 11.9 1000.2 2.8
18/04:00pm WNW 13 18 - - - - 10 Partly cloudy - 12.6 999.8 2.8
18/03:30pm WNW 12 18 - - - - 10 Partly cloudy - 12.5 999.1 2.8
18/03:22pm WNW 14 18 - - - - 10 Partly cloudy - 12.2 999.1 2.8
18/03:15pm WNW 17 24 - - - - 9 Partly cloudy - 12.1 999.1 2.8
18/03:05pm W 15 20 - - - - 2 Partly cloudy - 11.9 999.0 2.8
18/03:00pm W 15 23 - - - - 3 Cloudy Rain 12.1 998.9 1.2
18/02:53pm WNW 16 25 - - - - 5 Partly cloudy - 12.6 998.7 0.2
18/02:45pm NW 15 25 - - - - 10 Partly cloudy - 13.1 998.6 0.0
18/02:30pm WNW 19 27 - - - - 10 Partly cloudy - 13.7 998.4 0.0
18/02:00pm NW 22 32 - - - - 9 Partly cloudy - 12.7 998.2 0.0
18/01:36pm NW 20 30 - - - - 10 Partly cloudy - 13.9 998.0 0.0
18/01:30pm NW 20 27 - - - - 10 Partly cloudy - 13.5 998.0 0.0
18/01:00pm NW 25 35 - - - - 10 Partly cloudy - 14.0 998.4 0.0
18/12:30pm NNW 21 32 - - - - 10 Partly cloudy - 13.4 998.6 0.0
18/12:18pm NNW 21 36 - - - - 10 Partly cloudy - 13.4 998.5 0.0
18/12:00pm NNW 23 32 - - - - 10 Cloudy - 13.8 998.7 0.0
18/11:30am NW 25 41 - - - - 10 Cloudy - 13.8 999.2 0.0
18/11:00am NNW 24 38 - - - - 10 Partly cloudy - 14.4 999.6 0.0
18/10:31am NW 20 31 - - - - 10 Cloudy - 13.8 999.9 0.0
18/10:30am NW 20 29 - - - - 10 Cloudy - 13.8 999.9 0.0
18/10:00am NNW 21 32 - - - - 10 Cloudy - 13.4 999.9 0.0
18/09:35am NNW 19 29 - - - - 10 Partly cloudy - 13.2 1000.3 0.0
18/09:30am NNW 18 27 - - - - 10 Partly cloudy - 13.2 1000.3 0.0
18/09:25am NNW 17 27 - - - - 10 Partly cloudy - 13.1 1000.3 0.0
18/09:00am NW 12 19 - - - - 10 Cloudy Rain 12.5 1001.0 7.0
18/08:52am NW 11 16 - - - - 10 Partly cloudy - 12.4 1001.2 7.0
18/08:30am NNW 13 19 - - - - 10 Partly cloudy - 12.1 1001.5 7.0
18/08:15am NNW 11 16 - - - - 9 Partly cloudy - 12.0 1001.7 7.0
18/08:00am NNW 15 20 - - - - 4 Partly cloudy - 11.9 1001.5 6.8
18/07:47am NNW 15 21 - - - - 5 Partly cloudy - 11.9 1001.6 6.0
18/07:30am NNW 14 18 - - - - 10 Cloudy - 11.9 1001.5 5.6
18/07:00am NNW 14 20 - - - - 9 Partly cloudy - 12.0 1002.2 4.8
18/06:58am NNW 13 20 - - - - 10 Partly cloudy - 12.1 1002.2 4.6
18/06:43am NNW 15 25 - - - - 10 Partly cloudy - 12.2 1002.4 4.4
18/06:38am NNW 15 25 - - - - 10 Partly cloudy - 12.2 1002.7 4.4
18/06:30am NNW 16 24 - - - - 10 Partly cloudy - 12.3 1002.5 4.4
18/06:00am NNW 15 22 - - - - 10 Cloudy Recent precip. 12.5 1002.7 4.4
18/05:37am NNW 15 24 - - - - 10 Partly cloudy - 12.5 1002.9 4.4
18/05:30am NNW 17 27 - - - - 10 Partly cloudy - 12.6 1003.2 4.4
18/05:25am NNW 17 27 - - - - 10 Partly cloudy - 12.6 1003.0 4.4
18/05:00am NNW 15 22 - - - - 10 Partly cloudy - 12.4 1003.3 4.4
18/04:34am NW 14 21 - - - - 10 Partly cloudy - 12.3 1003.4 4.0
18/04:30am NNW 14 22 - - - - 10 Partly cloudy - 12.3 1003.4 4.0
18/04:02am NNW 15 24 - - - - 5 Partly cloudy - 12.1 1003.7 3.8
18/04:00am NNW 16 24 - - - - 6 Partly cloudy - 12.1 1003.6 3.8
18/03:30am N 14 22 - - - - 10 Partly cloudy - 12.3 1004.0 3.8
18/03:00am N 15 23 - - - - 10 Cloudy Showers 12.1 1004.6 3.8
18/02:30am N 13 19 - - - - 10 Partly cloudy - 12.1 1005.2 3.8
18/02:18am N 11 17 - - - - 10 Partly cloudy - 12.1 1005.5 3.8
18/02:00am NNW 13 21 - - - - 10 Partly cloudy - 12.1 1006.0 3.8
18/01:45am NNW 11 17 - - - - 10 Partly cloudy - 11.9 1006.5 3.8
18/01:30am NNW 12 18 - - - - 10 Partly cloudy - 11.9 1006.9 3.6
18/01:26am NNW 11 18 - - - - 10 Partly cloudy - 11.9 1007.0 3.6
18/01:00am NNW 13 20 - - - - 10 Partly cloudy - 11.8 1007.4 3.2
18/12:30am NNW 9 15 - - - - 10 Partly cloudy - 12.0 1007.9 2.8
18/12:00am NNW 10 15 - - - - 10 Cloudy - 11.9 1008.3 2.4
 
Date/Time
EST
Wind Sea
Height
m
Swell Vis
km
Cloud Weather Temp
°C
Press
MSL
hPa
Rain since
9am
mm
Dir  Spd
kts
Gust
kts
Height
m
Period
s
Dir
17/11:30pm NNW 8 12 - - - - 10 Cloudy - 11.8 1009.1 2.4
17/11:00pm NNW 7 10 - - - - 10 Partly cloudy - 11.7 1009.1 2.4
17/10:30pm NNW 8 11 - - - - 10 Cloudy - 11.8 1009.8 2.4
17/10:00pm N 4 6 - - - - 10 Cloudy - 11.6 1010.0 2.4
17/09:30pm N 5 7 - - - - 10 Partly cloudy - 11.4 1010.4 2.4
17/09:00pm NNW 5 7 - - - - 10 Cloudy Rain 11.4 1011.0 2.2
17/08:30pm NNW 6 9 - - - - 6 Partly cloudy - 11.4 1011.2 1.6
17/08:16pm N 7 9 - - - - 7 Partly cloudy - 11.4 1011.0 1.4
17/08:00pm N 6 9 - - - - 10 Partly cloudy - 11.4 1011.1 1.2
17/07:57pm N 6 10 - - - - 10 Partly cloudy - 11.4 1011.1 0.8
17/07:30pm N 6 8 - - - - 10 Partly cloudy - 11.5 1011.3 0.6
17/07:24pm N 5 8 - - - - 10 Partly cloudy - 11.5 1011.3 0.6
17/07:16pm N 4 6 - - - - 10 Partly cloudy - 11.4 1011.4 0.2
17/07:00pm N 5 9 - - - - 10 Partly cloudy - 11.5 1011.4 0.0
17/06:59pm N 5 9 - - - - 10 Partly cloudy - 11.5 1011.4 0.0
17/06:48pm N 6 9 - - - - 10 Partly cloudy - 11.4 1011.5 0.0
17/06:30pm N 6 9 - - - - 10 Partly cloudy - 11.6 1011.6 0.0
17/06:00pm N 7 9 - - - - 10 Mostly cloudy - 11.4 1011.8 0.0
17/05:33pm N 7 10 - - - - 10 Partly cloudy - 11.4 1012.2 0.0
17/05:30pm N 7 9 - - - - 10 Partly cloudy - 11.4 1012.1 0.0
17/05:14pm N 6 9 - - - - 10 Partly cloudy - 11.4 1012.6 0.0
17/05:00pm NNW 7 10 - - - - 10 Partly cloudy - 11.4 1012.6 0.0
17/04:49pm N 7 11 - - - - 10 Partly cloudy - 11.5 1012.8 0.0
17/04:30pm N 8 13 - - - - 10 Partly cloudy - 11.6 1012.6 0.0
17/04:00pm N 10 13 - - - - 10 Partly cloudy - 11.8 1012.8 0.0
17/03:30pm N 7 9 - - - - 10 Partly cloudy - 11.9 1013.4 0.0
17/03:00pm N 7 10 - - - - 10 Cloudy - 11.9 1013.4 0.0
17/02:30pm ENE 6 8 - - - - 10 Cloudy - 11.8 1013.0 0.0
17/02:00pm NNE 5 7 - - - - 10 Cloudy - 11.5 1013.7 0.0
17/01:30pm NNW 5 8 - - - - 10 Cloudy - 11.8 1014.2 0.0
17/01:00pm NNW 6 9 - - - - 10 Cloudy - 11.6 1014.6 0.0
17/12:30pm NNW 6 9 - - - - 10 Cloudy - 11.7 1014.9 0.0
17/12:00pm NNW 12 15 - - - - 10 Cloudy - 11.8 1016.1 0.0
17/11:30am NW 7 10 - - - - 10 Partly cloudy - 12.0 1016.4 0.0
17/11:00am WNW 9 12 - - - - 10 Partly cloudy - 12.0 1016.6 0.0
17/10:30am WNW 5 7 - - - - 10 - - 11.7 1017.0 0.0
17/10:00am WSW 5 7 - - - - 10 - - 10.4 1017.2 0.0
17/09:30am WNW 7 10 - - - - 10 - - 9.5 1017.1 0.0
17/09:00am W 5 7 - - - - 10 Mostly clear - 8.7 1016.6 0.0
17/08:30am WNW 6 8 - - - - 10 - - 6.8 1016.9 0.0
17/08:00am WNW 8 10 - - - - 10 - - 5.9 1016.9 0.0
17/07:30am W 4 5 - - - - 10 - - 4.8 1016.3 0.0
17/07:00am WNW 6 8 - - - - 10 - - 5.5 1016.2 0.0
17/06:30am W 7 9 - - - - 10 - - 5.5 1016.4 0.0
17/06:00am W 7 9 - - - - 10 Mostly cloudy - 5.2 1015.8 0.0
17/05:30am WNW 7 10 - - - - 10 - - 5.3 1015.9 0.0
17/05:00am WNW 6 7 - - - - 10 - - 4.3 1015.7 0.0
17/04:30am W 4 5 - - - - 10 - - 4.4 1015.3 0.0
17/04:00am W 6 8 - - - - 10 - - 4.2 1015.3 0.0
17/03:30am W 5 7 - - - - 10 - - 4.5 1015.2 0.0
17/03:00am W 5 6 - - - - 10 - - 4.3 1015.0 0.0
17/02:30am WSW 3 5 - - - - 10 - - 4.3 1014.9 0.0
17/02:00am SW 5 6 - - - - 10 - - 4.7 1014.9 0.0
17/01:30am WNW 5 7 - - - - 10 - - 4.9 1015.1 0.0
17/01:00am WNW 8 9 - - - - 10 - - 6.6 1015.0 0.0
17/12:30am WNW 6 9 - - - - 10 - - 6.5 1014.4 0.0
17/12:00am NW 5 7 - - - - 10 - - 7.6 1014.3 0.0
 
Date/Time
EST
Wind Sea
Height
m
Swell Vis
km
Cloud Weather Temp
°C
Press
MSL
hPa
Rain since
9am
mm
Dir  Spd
kts
Gust
kts
Height
m
Period
s
Dir
16/11:30pm W 7 10 - - - - 10 - - 7.4 1014.5 0.0
16/11:00pm WNW 8 9 - - - - 10 - - 7.4 1014.7 0.0
16/10:30pm WSW 7 9 - - - - 10 - - 6.7 1014.5 0.0
16/10:00pm WNW 6 8 - - - - 10 - - 8.2 1014.8 0.0
16/09:30pm WNW 3 5 - - - - 10 - - 7.8 1014.7 0.0
16/09:00pm W 7 9 - - - - 10 - - 10.0 1014.4 0.0
16/08:30pm W 7 11 - - - - 10 - - 9.6 1014.2 0.0
16/08:00pm W 4 7 - - - - 10 - - 10.3 1014.1 0.0
16/07:30pm WSW 8 14 - - - - 10 - - 10.7 1013.9 0.0
16/07:00pm SW 13 20 - - - - 10 - - 11.1 1013.5 0.0
16/06:30pm WSW 14 20 - - - - 10 - - 11.5 1013.0 0.0
16/06:00pm WSW 17 22 - - - - 10 - - 12.1 1012.0 0.0
16/05:30pm WSW 14 17 - - - - 10 - - 12.6 1011.0 0.0
16/05:00pm WSW 10 12 - - - - 10 - - 13.5 1010.8 0.0
16/04:30pm WSW 9 13 - - - - 10 - - 14.2 1010.3 0.0
16/04:00pm WSW 13 16 - - - - 10 - - 14.5 1010.3 0.0
16/03:30pm SW 15 20 - - - - 10 Partly cloudy - 14.6 1010.1 0.0
16/03:00pm SW 12 15 - - - - 10 Mostly clear - 15.6 1009.6 0.0
16/02:30pm WSW 9 13 - - - - 10 - - 15.6 1009.5 0.0
16/02:00pm SW 11 15 - - - - 10 - - 15.8 1009.0 0.0
16/01:30pm SSW 12 17 - - - - 10 Partly cloudy - 14.9 1008.7 0.0
16/01:00pm WSW 11 14 - - - - 10 Partly cloudy - 15.5 1008.8 0.0
16/12:30pm SW 11 16 - - - - 10 - - 15.0 1008.6 0.0
16/12:00pm SW 11 15 - - - - 10 Mostly clear - 14.0 1008.5 0.0
16/11:30am W 10 15 - - - - 10 Partly cloudy - 14.5 1008.2 0.0
16/11:00am W 7 10 - - - - 10 Partly cloudy - 13.3 1007.9 0.0
16/10:30am W 5 8 - - - - 10 - - 12.3 1007.4 0.0
16/10:00am W 8 12 - - - - 10 - - 11.9 1007.0 0.0
16/09:30am WSW 12 16 - - - - 10 - - 12.1 1006.8 0.0
16/09:00am WSW 13 17 - - - - 10 Mostly cloudy - 12.0 1006.5 7.0

Other formats

Comma delimited format used in spreadsheet applications
http://www.bom.gov.au/fwo/IDT60701/IDT60701.95957.axf

JavaScript Object Notation format (JSON) in row-major order
http://www.bom.gov.au/fwo/IDT60701/IDT60701.95957.json

Data quality

Most of these data are generated automatically and are frequently updated. Quality checks on data are not normally performed. It is possible for incorrect values to appear. Refer to information at About Latest Weather Observations and please check the disclaimer before using these data.